createdAt,value
2022-08-11T00:02:01.937Z,1.40
2022-08-11T00:05:08.286Z,1.40
2022-08-11T00:08:11.962Z,1.30
2022-08-11T00:11:17.120Z,1.60
2022-08-11T00:14:22.211Z,1.33
2022-08-11T00:17:31.971Z,1.30
2022-08-11T00:20:39.619Z,1.30
2022-08-11T00:23:45.980Z,1.45
2022-08-11T00:26:54.532Z,1.30
2022-08-11T00:29:58.265Z,1.20
2022-08-11T00:33:00.809Z,1.50
2022-08-11T00:36:06.728Z,1.35
2022-08-11T00:39:11.117Z,1.48
2022-08-11T00:42:26.052Z,1.40
2022-08-11T00:45:46.162Z,1.30
2022-08-11T00:49:18.152Z,1.50
2022-08-11T00:52:39.448Z,1.48
2022-08-11T00:55:57.736Z,1.30
2022-08-11T00:59:35.497Z,1.48
2022-08-11T01:03:04.286Z,1.48
2022-08-11T01:06:41.848Z,1.10
2022-08-11T01:10:05.129Z,1.30
2022-08-11T01:13:21.850Z,1.15
2022-08-11T01:17:09.686Z,1.20
2022-08-11T01:20:48.397Z,1.30
2022-08-11T01:24:26.380Z,1.17
2022-08-11T01:28:15.326Z,1.30
2022-08-11T01:31:34.735Z,1.17
2022-08-11T01:34:59.318Z,1.20
2022-08-11T01:38:20.774Z,1.50
2022-08-11T01:42:14.893Z,1.50
2022-08-11T01:45:43.050Z,1.58
2022-08-11T01:49:02.278Z,1.70
2022-08-11T01:52:34.858Z,1.25
2022-08-11T01:55:49.894Z,1.55
2022-08-11T01:58:56.063Z,1.70
2022-08-11T02:02:05.006Z,1.60
2022-08-11T02:05:27.429Z,1.50
2022-08-11T02:08:54.994Z,1.40
2022-08-11T02:12:28.091Z,1.52
2022-08-11T02:15:39.286Z,1.50
2022-08-11T02:19:07.930Z,1.70
2022-08-11T02:22:49.170Z,1.42
2022-08-11T02:26:13.307Z,1.60
2022-08-11T02:29:21.867Z,1.62
2022-08-11T02:32:50.645Z,1.33
2022-08-11T02:36:12.601Z,1.45
2022-08-11T02:39:20.265Z,1.58
2022-08-11T02:42:35.312Z,1.90
2022-08-11T02:45:48.553Z,1.60
2022-08-11T02:49:18.061Z,1.52
2022-08-11T02:52:59.681Z,1.35
2022-08-11T02:56:27.357Z,1.40
2022-08-11T02:59:51.904Z,1.50
2022-08-11T03:03:51.303Z,1.70
2022-08-11T03:07:38.495Z,1.27
2022-08-11T03:11:06.777Z,1.20
2022-08-11T03:14:54.762Z,1.50
2022-08-11T03:18:16.487Z,1.33
2022-08-11T03:22:01.828Z,1.15
2022-08-11T03:24:55.814Z,1.40
2022-08-11T03:28:24.602Z,1.65
2022-08-11T03:31:37.125Z,1.40
2022-08-11T03:34:45.435Z,1.42
2022-08-11T03:38:06.605Z,1.25
2022-08-11T03:42:01.855Z,1.73
2022-08-11T03:45:25.596Z,1.58
2022-08-11T03:48:47.846Z,1.40
2022-08-11T03:52:01.850Z,1.30
2022-08-11T03:55:15.923Z,1.42
2022-08-11T03:58:56.029Z,1.23
2022-08-11T04:02:20.971Z,1.40
2022-08-11T04:06:18.040Z,1.60
2022-08-11T04:09:32.430Z,1.40
2022-08-11T04:13:08.906Z,1.50
2022-08-11T04:16:41.513Z,1.77
2022-08-11T04:19:54.530Z,1.70
2022-08-11T04:23:06.309Z,1.80
2022-08-11T04:26:34.336Z,1.50
2022-08-11T04:30:03.151Z,1.50
2022-08-11T04:33:37.685Z,1.52
2022-08-11T04:37:34.984Z,1.50
2022-08-11T04:41:18.099Z,1.35
2022-08-11T04:44:38.715Z,1.70
2022-08-11T04:48:37.987Z,1.42
2022-08-11T04:52:20.532Z,1.65
2022-08-11T04:56:15.525Z,1.65
2022-08-11T05:00:01.799Z,1.20
2022-08-11T05:03:22.236Z,1.33
2022-08-11T05:06:58.485Z,1.37
2022-08-11T05:10:40.055Z,1.60
2022-08-11T05:14:06.860Z,1.45
2022-08-11T05:17:53.782Z,1.40
2022-08-11T05:21:16.675Z,1.60
2022-08-11T05:24:45.220Z,1.55
2022-08-11T05:28:18.303Z,1.30
2022-08-11T05:31:45.394Z,1.30
2022-08-11T05:34:54.032Z,1.58
2022-08-11T05:38:21.456Z,1.30
2022-08-11T05:41:45.851Z,1.30
2022-08-11T05:45:15.708Z,1.20
2022-08-11T05:52:05.577Z,1.35
2022-08-11T05:55:34.919Z,1.42
2022-08-11T05:58:43.237Z,1.70
2022-08-11T06:01:48.066Z,1.60
2022-08-11T06:04:58.719Z,1.30
2022-08-11T06:08:02.358Z,1.40
2022-08-11T06:11:06.290Z,1.27
2022-08-11T06:14:13.362Z,1.30
2022-08-11T06:17:23.236Z,1.37
2022-08-11T06:20:26.498Z,1.12
2022-08-11T06:23:36.086Z,1.30
2022-08-11T06:27:01.755Z,1.42
2022-08-11T06:30:17.154Z,1.17
2022-08-11T06:33:31.528Z,1.25
2022-08-11T06:36:54.337Z,1.50
2022-08-11T06:40:07.343Z,1.50
2022-08-11T06:43:19.794Z,1.10
2022-08-11T06:46:33.775Z,1.20
2022-08-11T06:50:06.354Z,1.10
2022-08-11T06:53:10.581Z,1.30
2022-08-11T06:56:42.099Z,1.40
2022-08-11T07:00:04.426Z,1.30
2022-08-11T07:03:11.542Z,1.20
2022-08-11T07:07:19.090Z,1.40
2022-08-11T07:11:03.899Z,1.45
2022-08-11T07:14:27.260Z,0.85
2022-08-11T07:17:35.157Z,1.00
2022-08-11T07:21:02.081Z,1.27
2022-08-11T07:24:34.595Z,1.10
2022-08-11T07:28:19.410Z,1.12
2022-08-11T07:31:46.298Z,0.90
2022-08-11T07:34:55.570Z,1.17
2022-08-11T07:38:07.060Z,1.08
2022-08-11T07:41:12.634Z,1.37
2022-08-11T07:44:17.123Z,1.10
2022-08-11T07:47:39.241Z,0.80
2022-08-11T07:51:03.795Z,0.88
2022-08-11T07:54:16.900Z,0.90
2022-08-11T07:58:13.772Z,1.00
2022-08-11T08:01:22.317Z,1.17
2022-08-11T08:04:47.353Z,0.80
2022-08-11T08:08:08.657Z,0.98
2022-08-11T08:11:30.734Z,1.00
2022-08-11T08:14:53.196Z,1.05
2022-08-11T08:18:08.981Z,0.90
2022-08-11T08:21:21.854Z,0.80
2022-08-11T08:24:25.700Z,1.20
2022-08-11T08:27:28.601Z,0.90
2022-08-11T08:30:50.713Z,1.23
2022-08-11T08:33:53.690Z,0.90
2022-08-11T08:36:56.819Z,1.00
2022-08-11T08:39:59.885Z,1.02
2022-08-11T08:43:09.152Z,1.12
2022-08-11T08:46:14.180Z,1.10
2022-08-11T08:49:22.683Z,1.20
2022-08-11T08:52:37.173Z,1.10
2022-08-11T08:55:45.562Z,1.00
2022-08-11T08:58:49.495Z,0.82
2022-08-11T09:02:02.781Z,0.77
2022-08-11T09:05:09.093Z,0.90
2022-08-11T09:08:12.812Z,0.70
2022-08-11T09:11:34.982Z,0.50
2022-08-11T09:14:59.633Z,0.60
2022-08-11T09:18:09.372Z,0.77
2022-08-11T09:21:14.813Z,0.60
2022-08-11T09:24:58.014Z,0.70
2022-08-11T09:28:03.110Z,0.70
2022-08-11T09:31:07.023Z,0.90
2022-08-11T09:34:11.341Z,0.70
2022-08-11T09:37:55.178Z,0.60
2022-08-11T09:41:00.425Z,0.70
2022-08-11T09:44:23.505Z,0.88
2022-08-11T09:47:31.649Z,0.85
2022-08-11T09:50:35.854Z,0.90
2022-08-11T09:53:41.709Z,0.80
2022-08-11T09:57:12.416Z,1.17
2022-08-11T10:00:16.568Z,0.77
2022-08-11T10:03:24.958Z,0.80
2022-08-11T10:06:48.613Z,0.88
2022-08-11T10:10:02.479Z,0.80
2022-08-11T10:14:10.054Z,0.70
2022-08-11T10:16:41.734Z,0.70
2022-08-11T10:20:05.506Z,0.80
2022-08-11T10:23:31.170Z,0.90
2022-08-11T10:26:53.656Z,1.00
2022-08-11T10:30:16.327Z,0.90
2022-08-11T10:33:45.746Z,0.70
2022-08-11T10:37:03.827Z,0.90
2022-08-11T10:40:09.068Z,0.80
2022-08-11T10:43:14.496Z,0.70
2022-08-11T10:46:57.162Z,0.90
2022-08-11T10:50:22.411Z,0.60
2022-08-11T10:53:43.846Z,0.77
2022-08-11T10:57:05.686Z,0.60
2022-08-11T11:00:14.308Z,1.00
2022-08-11T11:03:22.943Z,0.60
2022-08-11T11:06:33.590Z,0.60
2022-08-11T11:09:48.913Z,0.60
2022-08-11T11:13:17.803Z,0.62
2022-08-11T11:16:40.882Z,0.80
2022-08-11T11:19:44.975Z,0.60
2022-08-11T11:22:52.387Z,0.60
2022-08-11T11:26:27.492Z,0.75
2022-08-11T11:30:00.073Z,0.80
2022-08-11T11:33:13.392Z,0.70
2022-08-11T11:36:47.462Z,0.85
2022-08-11T11:39:50.688Z,0.73
2022-08-11T11:42:58.487Z,0.60
2022-08-11T11:46:01.875Z,0.68
2022-08-11T11:49:10.720Z,0.60
2022-08-11T11:52:21.174Z,0.90
2022-08-11T11:55:25.827Z,0.70
2022-08-11T11:58:47.403Z,0.80
2022-08-11T12:01:52.690Z,0.70
2022-08-11T12:04:56.362Z,0.80
2022-08-11T12:08:16.029Z,1.02
2022-08-11T12:11:40.377Z,0.75
2022-08-11T12:14:46.062Z,0.50
2022-08-11T12:17:52.795Z,0.62
2022-08-11T12:20:55.876Z,1.25
2022-08-11T12:24:20.308Z,0.60
2022-08-11T12:27:26.487Z,0.62
2022-08-11T12:30:30.194Z,0.70
2022-08-11T12:33:35.151Z,0.62
2022-08-11T12:36:54.496Z,0.70
2022-08-11T12:40:43.756Z,0.60
2022-08-11T12:44:04.371Z,0.80
2022-08-11T12:47:07.789Z,0.60
2022-08-11T12:50:29.879Z,0.52
2022-08-11T12:53:35.094Z,0.70
2022-08-11T12:57:00.002Z,0.55
2022-08-11T13:00:24.680Z,0.50
2022-08-11T13:03:52.380Z,0.50
2022-08-11T13:06:55.264Z,0.62
2022-08-11T13:09:59.234Z,0.60
2022-08-11T13:13:52.553Z,0.70
2022-08-11T13:16:56.699Z,0.50
2022-08-11T13:20:00.613Z,0.55
2022-08-11T13:23:04.124Z,0.70
2022-08-11T13:26:08.871Z,0.80
2022-08-11T13:29:12.827Z,0.60
2022-08-11T13:32:16.418Z,0.80
2022-08-11T13:35:20.355Z,0.70
2022-08-11T13:38:25.287Z,0.70
2022-08-11T13:41:39.334Z,0.60
2022-08-11T13:44:43.825Z,0.50
2022-08-11T13:47:48.320Z,0.60
2022-08-11T13:51:09.688Z,0.52
2022-08-11T13:54:19.581Z,0.50
2022-08-11T13:58:07.516Z,0.60
2022-08-11T14:00:52.373Z,0.60
2022-08-11T14:04:30.515Z,0.47
2022-08-11T14:07:24.894Z,0.65
2022-08-11T14:10:33.128Z,0.50
2022-08-11T14:13:42.208Z,0.70
2022-08-11T14:16:47.872Z,0.70
2022-08-11T14:19:53.555Z,0.57
2022-08-11T14:22:56.551Z,0.75
2022-08-11T14:26:18.883Z,0.60
2022-08-11T14:29:25.352Z,0.50
2022-08-11T14:32:28.390Z,0.70
2022-08-11T14:35:31.441Z,0.50
2022-08-11T14:38:35.545Z,0.60
2022-08-11T14:42:11.894Z,0.60
2022-08-11T14:45:58.487Z,0.45
2022-08-11T14:48:59.930Z,0.85
2022-08-11T14:52:20.845Z,0.77
2022-08-11T14:55:45.778Z,0.50
2022-08-11T14:58:48.690Z,0.57
2022-08-11T15:02:10.545Z,0.52
2022-08-11T15:05:14.273Z,0.50
2022-08-11T15:08:19.057Z,0.30
2022-08-11T15:11:43.718Z,0.77
2022-08-11T15:15:07.023Z,0.70
2022-08-11T15:18:14.259Z,0.50
2022-08-11T15:21:35.940Z,0.60
2022-08-11T15:24:38.682Z,0.60
2022-08-11T15:28:07.065Z,0.52
2022-08-11T15:31:31.437Z,0.80
2022-08-11T15:34:53.007Z,0.60
2022-08-11T15:37:58.349Z,0.60
2022-08-11T15:41:25.332Z,0.68
2022-08-11T15:45:06.717Z,0.62
2022-08-11T15:48:14.377Z,0.70
2022-08-11T15:51:46.585Z,0.50
2022-08-11T15:54:50.717Z,0.68
2022-08-11T15:58:13.986Z,0.80
2022-08-11T16:01:39.057Z,0.60
2022-08-11T16:04:45.562Z,0.80
2022-08-11T16:07:51.022Z,0.60
2022-08-11T16:10:56.686Z,0.60
2022-08-11T16:14:24.646Z,0.50
2022-08-11T16:17:33.096Z,0.70
2022-08-11T16:20:36.908Z,0.62
2022-08-11T16:23:43.158Z,0.90
2022-08-11T16:27:10.281Z,0.80
2022-08-11T16:30:11.689Z,0.90
2022-08-11T16:33:48.485Z,0.82
2022-08-11T16:36:58.264Z,0.90
2022-08-11T16:40:01.442Z,0.88
2022-08-11T16:43:32.292Z,0.77
2022-08-11T16:46:54.942Z,0.80
2022-08-11T16:49:59.648Z,0.55
2022-08-11T16:53:02.797Z,0.82
2022-08-11T16:56:06.457Z,0.90
2022-08-11T16:59:19.552Z,0.80
2022-08-11T17:02:44.202Z,0.65
2022-08-11T17:06:25.123Z,0.73
2022-08-11T17:09:49.480Z,1.00
2022-08-11T17:13:10.532Z,0.93
2022-08-11T17:16:17.487Z,0.90
2022-08-11T17:20:41.419Z,1.12
2022-08-11T17:23:13.028Z,0.75
2022-08-11T17:26:19.875Z,0.98
2022-08-11T17:29:54.438Z,1.20
2022-08-11T17:33:16.624Z,0.93
2022-08-11T17:36:20.485Z,0.85
2022-08-11T17:39:30.252Z,1.20
2022-08-11T17:42:54.085Z,1.40
2022-08-11T17:46:16.148Z,0.77
2022-08-11T17:49:20.467Z,1.23
2022-08-11T17:52:43.864Z,0.90
2022-08-11T17:56:07.534Z,0.90
2022-08-11T17:59:32.463Z,1.02
2022-08-11T18:02:57.157Z,1.30
2022-08-11T18:06:04.568Z,1.10
2022-08-11T18:09:38.857Z,1.10
2022-08-11T18:13:01.672Z,1.00
2022-08-11T18:16:23.210Z,1.00
2022-08-11T18:19:44.586Z,1.08
2022-08-11T18:23:08.422Z,0.90
2022-08-11T18:26:31.252Z,0.88
2022-08-11T18:29:56.358Z,0.90
2022-08-11T18:37:24.759Z,1.05
2022-08-11T18:40:49.280Z,0.95
2022-08-11T18:44:14.638Z,0.90
2022-08-11T18:47:40.945Z,1.00
2022-08-11T18:51:30.343Z,1.05
2022-08-11T18:54:48.867Z,1.00
2022-08-11T18:58:15.395Z,1.23
2022-08-11T19:01:41.032Z,1.05
2022-08-11T19:05:05.364Z,0.90
2022-08-11T19:08:29.330Z,0.88
2022-08-11T19:11:52.752Z,0.85
2022-08-11T19:15:17.193Z,0.90
2022-08-11T19:18:41.218Z,1.00
2022-08-11T19:22:03.718Z,0.93
2022-08-11T19:25:26.877Z,0.93
2022-08-11T19:28:50.374Z,1.00
2022-08-11T19:32:13.466Z,0.80
2022-08-11T19:35:36.166Z,0.70
2022-08-11T19:38:57.776Z,1.00
2022-08-11T19:42:20.558Z,0.90
2022-08-11T19:45:41.969Z,0.90
2022-08-11T19:49:10.981Z,0.90
2022-08-11T19:52:33.564Z,0.88
2022-08-11T19:55:57.630Z,0.88
2022-08-11T19:59:20.243Z,0.85
2022-08-11T20:02:41.836Z,0.95
2022-08-11T20:06:04.490Z,1.00
2022-08-11T20:09:28.514Z,0.73
2022-08-11T20:13:12.495Z,0.60
2022-08-11T20:16:44.184Z,0.80
2022-08-11T20:20:07.795Z,0.88
2022-08-11T20:23:33.449Z,1.05
2022-08-11T20:26:55.846Z,0.90
2022-08-11T20:30:18.776Z,0.73
2022-08-11T20:33:41.802Z,0.52
2022-08-11T20:37:04.891Z,0.90
2022-08-11T20:40:27.442Z,0.80
2022-08-11T20:44:08.380Z,2.33
2022-08-11T20:47:56.168Z,0.85
2022-08-11T20:51:17.912Z,0.82
2022-08-11T20:54:43.840Z,0.80
2022-08-11T20:58:07.398Z,0.98
2022-08-11T21:01:42.136Z,0.77
2022-08-11T21:05:03.339Z,0.80
2022-08-11T21:08:27.069Z,1.40
2022-08-11T21:11:53.559Z,0.70
2022-08-11T21:15:38.645Z,1.15
2022-08-11T21:19:01.337Z,0.75
2022-08-11T21:22:27.785Z,0.62
2022-08-11T21:25:54.274Z,0.73
2022-08-11T21:29:18.563Z,0.77
2022-08-11T21:32:41.548Z,0.93
2022-08-11T21:36:03.558Z,0.80
2022-08-11T21:39:26.355Z,0.80
2022-08-11T21:42:51.185Z,0.90
2022-08-11T21:46:13.952Z,0.70
2022-08-11T21:49:38.985Z,0.80
2022-08-11T21:53:01.699Z,0.77
2022-08-11T21:56:27.356Z,0.70
2022-08-11T22:00:00.153Z,0.88
2022-08-11T22:03:23.638Z,0.90
2022-08-11T22:06:45.779Z,0.80
2022-08-11T22:10:32.015Z,1.30
2022-08-11T22:14:01.239Z,0.90
2022-08-11T22:20:51.004Z,1.00
2022-08-11T22:24:12.530Z,0.70
2022-08-11T22:27:40.901Z,0.80
2022-08-11T22:31:02.008Z,0.70
2022-08-11T22:34:24.915Z,0.65
2022-08-11T22:37:47.950Z,0.82
2022-08-11T22:41:09.824Z,0.70
2022-08-11T22:44:30.772Z,0.95
2022-08-11T22:47:54.536Z,0.80
2022-08-11T22:51:18.267Z,0.70
2022-08-11T22:54:40.536Z,0.73
2022-08-11T22:58:01.945Z,0.80
2022-08-11T23:01:24.010Z,0.73
2022-08-11T23:04:45.946Z,0.68
2022-08-11T23:08:15.863Z,1.00
2022-08-11T23:12:07.959Z,0.77
2022-08-11T23:15:19.582Z,0.70
2022-08-11T23:18:41.565Z,0.65
2022-08-11T23:22:02.917Z,0.80
2022-08-11T23:25:24.223Z,0.77
2022-08-11T23:28:46.692Z,0.70
2022-08-11T23:32:10.027Z,0.77
2022-08-11T23:35:38.959Z,0.80
2022-08-11T23:39:02.111Z,0.80
2022-08-11T23:42:24.354Z,0.80
2022-08-11T23:45:46.014Z,0.85
2022-08-11T23:49:12.050Z,0.75
2022-08-11T23:52:34.998Z,0.70
2022-08-11T23:55:57.048Z,0.80
2022-08-11T23:59:20.708Z,0.82
